KDIJ

Driggs-Reed Memorial Airport

Driggs, Idaho, USA
KDIJ 212320Z 2200/2224 26010KT P6SM BKN250 FM220400 15006KT P6SM BKN250 FM221800 24014G25KT P6SM BKN250 AMD LTD TO CLD VIS AND WIND
Issued Valid From Valid To
Sep-21 @ 23:20 UTC
(4 hours ago)
Sep-22 @ 00:00 UTC
(3 hours ago)
Sep-23 @ 00:00 UTC
(in 21 hours)
to
to
to
KDIJ 212320Z 2200/2224 26010KT P6SM BKN250 FM220400 15006KT P6SM BKN250 FM221800 24014G25KT P6SM BKN250 AMD LTD TO CLD VIS AND WIND
Issued Sep-21 @ 23:20 UTC
(4 hours ago)
Valid From Sep-22 @ 00:00 UTC
(3 hours ago)
Valid To Sep-23 @ 00:00 UTC
(in 21 hours)
-
-
-